sensor_id;sensor_type;location;lat;lon;timestamp;pressure;altitude;pressure_sealevel;temperature;humidity
21760;BME280;11041;50.854;20.580;2022-09-09T00:02:22;98310.75;;;17.08;97.34
21760;BME280;11041;50.854;20.580;2022-09-09T00:05:22;98289.16;;;16.98;97.39
21760;BME280;11041;50.854;20.580;2022-09-09T00:07:58;98282.44;;;16.99;97.42
21760;BME280;11041;50.854;20.580;2022-09-09T00:10:42;98312.00;;;17.11;97.64
21760;BME280;11041;50.854;20.580;2022-09-09T00:13:45;98315.56;;;17.11;97.44
21760;BME280;11041;50.854;20.580;2022-09-09T00:16:28;98315.13;;;17.09;97.32
21760;BME280;11041;50.854;20.580;2022-09-09T00:19:07;98318.72;;;17.10;97.34
21760;BME280;11041;50.854;20.580;2022-09-09T00:22:19;98314.78;;;17.11;97.35
21760;BME280;11041;50.854;20.580;2022-09-09T00:25:08;98291.91;;;16.98;97.62
21760;BME280;11041;50.854;20.580;2022-09-09T00:27:45;98310.75;;;17.08;97.51
21760;BME280;11041;50.854;20.580;2022-09-09T00:30:29;98292.75;;;16.98;97.72
21760;BME280;11041;50.854;20.580;2022-09-09T00:33:11;98294.34;;;16.99;97.85
21760;BME280;11041;50.854;20.580;2022-09-09T00:36:00;98289.59;;;17.00;98.06
21760;BME280;11041;50.854;20.580;2022-09-09T00:38:43;98316.75;;;17.10;97.91
21760;BME280;11041;50.854;20.580;2022-09-09T00:44:34;98307.59;;;17.10;97.85
21760;BME280;11041;50.854;20.580;2022-09-09T00:47:22;98325.50;;;17.12;98.26
21760;BME280;11041;50.854;20.580;2022-09-09T00:56:20;98313.97;;;17.10;98.49
21760;BME280;11041;50.854;20.580;2022-09-09T00:59:28;98305.44;;;16.99;98.50
21760;BME280;11041;50.854;20.580;2022-09-09T01:02:16;98313.91;;;17.07;98.83
21760;BME280;11041;50.854;20.580;2022-09-09T01:04:48;98325.44;;;17.09;98.80
21760;BME280;11041;50.854;20.580;2022-09-09T01:07:19;98331.44;;;17.11;98.91
21760;BME280;11041;50.854;20.580;2022-09-09T01:09:55;98319.41;;;17.03;99.00
21760;BME280;11041;50.854;20.580;2022-09-09T01:12:42;98332.59;;;17.10;98.97
21760;BME280;11041;50.854;20.580;2022-09-09T01:15:29;98314.22;;;17.01;99.17
21760;BME280;11041;50.854;20.580;2022-09-09T01:18:06;98328.13;;;17.05;98.78
21760;BME280;11041;50.854;20.580;2022-09-09T01:26:45;98341.31;;;17.08;99.05
21760;BME280;11041;50.854;20.580;2022-09-09T01:29:16;98337.22;;;17.02;98.85
21760;BME280;11041;50.854;20.580;2022-09-09T01:37:56;98314.44;;;16.93;99.44
21760;BME280;11041;50.854;20.580;2022-09-09T01:40:24;98329.63;;;16.99;99.65
21760;BME280;11041;50.854;20.580;2022-09-09T01:42:52;98333.63;;;17.01;99.79
21760;BME280;11041;50.854;20.580;2022-09-09T01:45:19;98322.31;;;16.91;99.77
21760;BME280;11041;50.854;20.580;2022-09-09T01:47:48;98333.16;;;16.96;99.79
21760;BME280;11041;50.854;20.580;2022-09-09T01:50:17;98333.56;;;16.98;99.60
21760;BME280;11041;50.854;20.580;2022-09-09T01:52:51;98336.78;;;17.00;99.70
21760;BME280;11041;50.854;20.580;2022-09-09T01:55:30;98340.72;;;16.99;99.57
21760;BME280;11041;50.854;20.580;2022-09-09T02:07:40;98338.31;;;16.78;100.00
21760;BME280;11041;50.854;20.580;2022-09-09T02:10:30;98339.97;;;16.79;100.00
21760;BME280;11041;50.854;20.580;2022-09-09T02:13:12;98333.84;;;16.73;100.00
21760;BME280;11041;50.854;20.580;2022-09-09T02:18:56;98354.50;;;16.76;100.00
21760;BME280;11041;50.854;20.580;2022-09-09T02:21:23;98359.72;;;16.77;100.00
21760;BME280;11041;50.854;20.580;2022-09-09T02:23:51;98361.59;;;16.73;100.00
21760;BME280;11041;50.854;20.580;2022-09-09T02:26:21;98367.94;;;16.74;100.00
21760;BME280;11041;50.854;20.580;2022-09-09T02:28:52;98368.31;;;16.72;100.00
21760;BME280;11041;50.854;20.580;2022-09-09T02:31:24;98364.63;;;16.65;100.00
21760;BME280;11041;50.854;20.580;2022-09-09T02:33:57;98367.00;;;16.66;100.00
21760;BME280;11041;50.854;20.580;2022-09-09T02:36:31;98372.53;;;16.66;100.00
21760;BME280;11041;50.854;20.580;2022-09-09T02:39:00;98378.53;;;16.68;100.00
21760;BME280;11041;50.854;20.580;2022-09-09T02:41:33;98362.09;;;16.59;100.00
21760;BME280;11041;50.854;20.580;2022-09-09T02:44:05;98366.56;;;16.64;100.00
21760;BME280;11041;50.854;20.580;2022-09-09T02:49:33;98364.63;;;16.65;100.00
21760;BME280;11041;50.854;20.580;2022-09-09T02:53:05;98353.72;;;16.56;100.00
21760;BME280;11041;50.854;20.580;2022-09-09T02:58:18;98371.25;;;16.60;100.00
21760;BME280;11041;50.854;20.580;2022-09-09T03:00:50;98366.06;;;16.58;100.00
21760;BME280;11041;50.854;20.580;2022-09-09T03:03:18;98385.97;;;16.64;100.00
21760;BME280;11041;50.854;20.580;2022-09-09T03:05:46;98395.13;;;16.65;100.00
21760;BME280;11041;50.854;20.580;2022-09-09T03:08:13;98384.22;;;16.56;100.00
21760;BME280;11041;50.854;20.580;2022-09-09T03:10:40;98373.59;;;16.58;100.00
21760;BME280;11041;50.854;20.580;2022-09-09T03:13:07;98390.81;;;16.67;100.00
21760;BME280;11041;50.854;20.580;2022-09-09T03:15:34;98388.75;;;16.64;100.00
21760;BME280;11041;50.854;20.580;2022-09-09T03:18:02;98379.63;;;16.64;100.00
21760;BME280;11041;50.854;20.580;2022-09-09T03:20:30;98395.19;;;16.68;99.94
21760;BME280;11041;50.854;20.580;2022-09-09T03:22:59;98396.38;;;16.67;99.97
21760;BME280;11041;50.854;20.580;2022-09-09T03:25:26;98388.59;;;16.57;99.92
21760;BME280;11041;50.854;20.580;2022-09-09T03:27:54;98405.34;;;16.60;99.70
21760;BME280;11041;50.854;20.580;2022-09-09T03:30:23;98401.38;;;16.61;99.55
21760;BME280;11041;50.854;20.580;2022-09-09T03:32:51;98397.31;;;16.55;99.57
21760;BME280;11041;50.854;20.580;2022-09-09T03:35:18;98392.41;;;16.49;99.86
21760;BME280;11041;50.854;20.580;2022-09-09T03:37:45;98395.16;;;16.49;99.68
21760;BME280;11041;50.854;20.580;2022-09-09T03:40:12;98406.06;;;16.57;99.70
21760;BME280;11041;50.854;20.580;2022-09-09T03:42:39;98403.13;;;16.50;99.83
21760;BME280;11041;50.854;20.580;2022-09-09T03:45:09;98419.50;;;16.55;99.75
21760;BME280;11041;50.854;20.580;2022-09-09T03:47:37;98414.53;;;16.45;99.79
21760;BME280;11041;50.854;20.580;2022-09-09T03:50:05;98433.34;;;16.55;99.61
21760;BME280;11041;50.854;20.580;2022-09-09T03:52:36;98415.59;;;16.40;99.08
21760;BME280;11041;50.854;20.580;2022-09-09T03:55:05;98419.81;;;16.34;99.76
21760;BME280;11041;50.854;20.580;2022-09-09T03:57:32;98423.75;;;16.33;99.64
21760;BME280;11041;50.854;20.580;2022-09-09T04:00:06;98417.16;;;16.22;99.37
21760;BME280;11041;50.854;20.580;2022-09-09T04:02:33;98436.28;;;16.27;99.53
21760;BME280;11041;50.854;20.580;2022-09-09T04:05:00;98424.06;;;16.12;99.43
21760;BME280;11041;50.854;20.580;2022-09-09T04:07:26;98435.88;;;16.09;99.55
21760;BME280;11041;50.854;20.580;2022-09-09T04:09:54;98442.94;;;16.07;99.78
21760;BME280;11041;50.854;20.580;2022-09-09T04:12:21;98422.75;;;15.90;99.68
21760;BME280;11041;50.854;20.580;2022-09-09T04:14:48;98433.63;;;15.99;100.00
21760;BME280;11041;50.854;20.580;2022-09-09T04:17:15;98444.38;;;16.01;99.99
21760;BME280;11041;50.854;20.580;2022-09-09T04:19:43;98428.56;;;15.85;99.62
21760;BME280;11041;50.854;20.580;2022-09-09T04:22:09;98440.25;;;15.94;99.63
21760;BME280;11041;50.854;20.580;2022-09-09T04:24:36;98437.75;;;15.89;99.93
21760;BME280;11041;50.854;20.580;2022-09-09T04:27:03;98431.69;;;15.84;99.97
21760;BME280;11041;50.854;20.580;2022-09-09T04:29:29;98423.38;;;15.84;99.77
21760;BME280;11041;50.854;20.580;2022-09-09T04:31:56;98441.59;;;15.85;99.83
21760;BME280;11041;50.854;20.580;2022-09-09T04:34:22;98443.03;;;15.79;99.38
21760;BME280;11041;50.854;20.580;2022-09-09T04:36:48;98471.28;;;15.84;99.51
21760;BME280;11041;50.854;20.580;2022-09-09T04:39:15;98460.13;;;15.81;99.67
21760;BME280;11041;50.854;20.580;2022-09-09T04:41:41;98452.41;;;15.74;99.64
21760;BME280;11041;50.854;20.580;2022-09-09T04:44:08;98457.16;;;15.73;99.68
21760;BME280;11041;50.854;20.580;2022-09-09T04:46:36;98462.31;;;15.75;99.68
21760;BME280;11041;50.854;20.580;2022-09-09T04:49:02;98453.72;;;15.64;99.80
21760;BME280;11041;50.854;20.580;2022-09-09T04:51:29;98472.25;;;15.76;100.00
21760;BME280;11041;50.854;20.580;2022-09-09T04:53:57;98472.34;;;15.80;100.00
21760;BME280;11041;50.854;20.580;2022-09-09T04:56:24;98460.97;;;15.69;99.97
21760;BME280;11041;50.854;20.580;2022-09-09T04:58:53;98468.94;;;15.70;99.91
21760;BME280;11041;50.854;20.580;2022-09-09T05:01:21;98453.53;;;15.57;100.00
21760;BME280;11041;50.854;20.580;2022-09-09T05:03:49;98488.50;;;15.77;99.30
21760;BME280;11041;50.854;20.580;2022-09-09T05:06:19;98481.72;;;15.75;99.26
21760;BME280;11041;50.854;20.580;2022-09-09T05:08:47;98495.22;;;15.76;99.15
21760;BME280;11041;50.854;20.580;2022-09-09T05:11:34;98482.63;;;15.79;99.39
21760;BME280;11041;50.854;20.580;2022-09-09T05:14:03;98485.84;;;15.81;99.20
21760;BME280;11041;50.854;20.580;2022-09-09T05:16:31;98431.28;;;15.53;99.13
21760;BME280;11041;50.854;20.580;2022-09-09T05:18:57;98472.25;;;15.76;99.04
21760;BME280;11041;50.854;20.580;2022-09-09T05:21:25;98487.44;;;15.82;99.30
21760;BME280;11041;50.854;20.580;2022-09-09T05:23:52;98462.25;;;15.71;99.33
21760;BME280;11041;50.854;20.580;2022-09-09T05:26:22;98478.44;;;15.85;99.27
21760;BME280;11041;50.854;20.580;2022-09-09T05:28:49;98484.41;;;15.87;99.14
21760;BME280;11041;50.854;20.580;2022-09-09T05:31:17;98489.72;;;15.92;98.68
21760;BME280;11041;50.854;20.580;2022-09-09T05:33:47;98487.19;;;15.87;99.15
21760;BME280;11041;50.854;20.580;2022-09-09T05:36:19;98505.59;;;15.95;98.76
21760;BME280;11041;50.854;20.580;2022-09-09T05:38:47;98494.53;;;15.95;98.70
21760;BME280;11041;50.854;20.580;2022-09-09T05:41:14;98497.75;;;15.97;98.68
21760;BME280;11041;50.854;20.580;2022-09-09T05:43:45;98498.63;;;16.02;98.43
21760;BME280;11041;50.854;20.580;2022-09-09T05:46:22;98497.75;;;15.97;98.13
21760;BME280;11041;50.854;20.580;2022-09-09T05:48:50;98503.75;;;16.00;98.20
21760;BME280;11041;50.854;20.580;2022-09-09T05:51:24;98503.03;;;16.03;97.86
21760;BME280;11041;50.854;20.580;2022-09-09T05:53:52;98503.03;;;16.03;97.20
21760;BME280;11041;50.854;20.580;2022-09-09T05:56:24;98509.47;;;16.07;97.07
21760;BME280;11041;50.854;20.580;2022-09-09T05:58:53;98510.88;;;16.01;96.87
21760;BME280;11041;50.854;20.580;2022-09-09T06:01:27;98505.69;;;15.99;96.98
21760;BME280;11041;50.854;20.580;2022-09-09T06:03:55;98506.75;;;15.94;96.74
21760;BME280;11041;50.854;20.580;2022-09-09T06:06:25;98513.91;;;15.95;97.05
21760;BME280;11041;50.854;20.580;2022-09-09T06:08:55;98514.00;;;15.99;97.48
21760;BME280;11041;50.854;20.580;2022-09-09T06:11:28;98526.44;;;16.05;97.40
21760;BME280;11041;50.854;20.580;2022-09-09T06:14:22;98528.03;;;16.06;97.37
21760;BME280;11041;50.854;20.580;2022-09-09T06:17:13;98489.69;;;15.76;97.04
21760;BME280;11041;50.854;20.580;2022-09-09T06:20:05;98516.69;;;15.95;97.74
21760;BME280;11041;50.854;20.580;2022-09-09T06:22:56;98509.78;;;15.89;97.63
21760;BME280;11041;50.854;20.580;2022-09-09T06:25:47;98535.22;;;16.07;97.91
21760;BME280;11041;50.854;20.580;2022-09-09T06:28:40;98523.56;;;16.02;97.82
21760;BME280;11041;50.854;20.580;2022-09-09T06:31:35;98542.72;;;16.07;97.62
21760;BME280;11041;50.854;20.580;2022-09-09T06:34:28;98542.34;;;16.08;97.18
21760;BME280;11041;50.854;20.580;2022-09-09T06:37:19;98551.22;;;16.14;96.88
21760;BME280;11041;50.854;20.580;2022-09-09T06:40:11;98548.69;;;16.09;96.15
21760;BME280;11041;50.854;20.580;2022-09-09T07:51:49;98574.47;;;17.08;89.52
21760;BME280;11041;50.854;20.580;2022-09-09T07:54:19;98587.34;;;17.16;89.31
21760;BME280;11041;50.854;20.580;2022-09-09T07:56:47;98573.97;;;17.22;88.61
21760;BME280;11041;50.854;20.580;2022-09-09T07:59:14;98579.59;;;17.25;87.63
21760;BME280;11041;50.854;20.580;2022-09-09T08:01:45;98579.16;;;17.23;87.61
21760;BME280;11041;50.854;20.580;2022-09-09T08:04:18;98577.72;;;17.30;87.17
21760;BME280;11041;50.854;20.580;2022-09-09T08:06:55;98566.69;;;17.33;88.29
21760;BME280;11041;50.854;20.580;2022-09-09T08:09:25;98565.59;;;17.38;87.73
21760;BME280;11041;50.854;20.580;2022-09-09T08:11:56;98577.88;;;17.56;87.02
21760;BME280;11041;50.854;20.580;2022-09-09T08:14:25;98563.75;;;17.65;87.32
21760;BME280;11041;50.854;20.580;2022-09-09T08:16:52;98562.78;;;17.77;85.35
21760;BME280;11041;50.854;20.580;2022-09-09T08:19:21;98562.44;;;17.78;84.69
21760;BME280;11041;50.854;20.580;2022-09-09T08:21:47;98584.03;;;17.85;85.23
21760;BME280;11041;50.854;20.580;2022-09-09T08:24:15;98573.19;;;17.80;83.45
21760;BME280;11041;50.854;20.580;2022-09-09T08:26:46;98584.81;;;17.85;82.60
21760;BME280;11041;50.854;20.580;2022-09-09T08:29:15;98584.44;;;17.87;83.35
21760;BME280;11041;50.854;20.580;2022-09-09T08:31:51;98579.91;;;17.79;81.88
21760;BME280;11041;50.854;20.580;2022-09-09T08:34:22;98564.31;;;17.74;82.96
21760;BME280;11041;50.854;20.580;2022-09-09T08:36:50;98579.41;;;17.93;83.23
21760;BME280;11041;50.854;20.580;2022-09-09T08:39:20;98579.66;;;18.07;83.24
21760;BME280;11041;50.854;20.580;2022-09-09T08:50:38;98565.41;;;17.89;81.19
21760;BME280;11041;50.854;20.580;2022-09-09T08:55:47;98568.03;;;18.01;80.49
21760;BME280;11041;50.854;20.580;2022-09-09T08:58:21;98569.22;;;18.00;81.02
21760;BME280;11041;50.854;20.580;2022-09-09T09:04:41;98588.19;;;18.18;78.05
21760;BME280;11041;50.854;20.580;2022-09-09T09:12:41;98585.09;;;18.23;79.79
21760;BME280;11041;50.854;20.580;2022-09-09T09:15:23;98588.13;;;18.37;79.39
21760;BME280;11041;50.854;20.580;2022-09-09T09:17:51;98593.13;;;18.51;78.10
21760;BME280;11041;50.854;20.580;2022-09-09T09:23:22;98580.75;;;18.71;77.30
21760;BME280;11041;50.854;20.580;2022-09-09T09:25:54;98582.47;;;18.76;76.64
21760;BME280;11041;50.854;20.580;2022-09-09T09:28:27;98591.22;;;18.78;74.54
21760;BME280;11041;50.854;20.580;2022-09-09T09:36:08;98593.25;;;19.08;75.00
21760;BME280;11041;50.854;20.580;2022-09-09T09:38:36;98597.38;;;19.18;74.77
21760;BME280;11041;50.854;20.580;2022-09-09T09:41:03;98585.00;;;19.15;73.87
21760;BME280;11041;50.854;20.580;2022-09-09T09:43:37;98600.69;;;19.27;74.08
21760;BME280;11041;50.854;20.580;2022-09-09T09:46:21;98594.34;;;19.30;74.63
21760;BME280;11041;50.854;20.580;2022-09-09T09:49:00;98570.41;;;19.25;73.99
21760;BME280;11041;50.854;20.580;2022-09-09T09:51:31;98590.44;;;19.34;70.43
21760;BME280;11041;50.854;20.580;2022-09-09T09:56:46;98603.69;;;19.45;73.02
21760;BME280;11041;50.854;20.580;2022-09-09T09:59:40;98615.38;;;19.54;74.49
21760;BME280;11041;50.854;20.580;2022-09-09T10:02:25;98614.69;;;19.64;72.78
21760;BME280;11041;50.854;20.580;2022-09-09T10:05:23;98612.03;;;19.71;71.16
21760;BME280;11041;50.854;20.580;2022-09-09T10:08:12;98610.81;;;19.69;71.50
21760;BME280;11041;50.854;20.580;2022-09-09T10:17:53;98622.91;;;19.80;70.68
21760;BME280;11041;50.854;20.580;2022-09-09T10:21:07;98631.28;;;19.84;68.99
21760;BME280;11041;50.854;20.580;2022-09-09T10:23:56;98615.41;;;19.88;68.57
21760;BME280;11041;50.854;20.580;2022-09-09T10:30:07;98607.00;;;20.18;67.20
21760;BME280;11041;50.854;20.580;2022-09-09T10:32:48;98609.88;;;20.29;67.23
21760;BME280;11041;50.854;20.580;2022-09-09T10:36:35;98612.44;;;20.45;68.11
21760;BME280;11041;50.854;20.580;2022-09-09T10:42:14;98594.47;;;20.46;67.31
21760;BME280;11041;50.854;20.580;2022-09-09T10:45:23;98614.97;;;20.60;66.41
21760;BME280;11041;50.854;20.580;2022-09-09T10:48:43;98615.03;;;20.68;64.18
21760;BME280;11041;50.854;20.580;2022-09-09T11:00:06;98602.75;;;20.79;62.42
21760;BME280;11041;50.854;20.580;2022-09-09T11:02:34;98624.41;;;20.93;62.52
21760;BME280;11041;50.854;20.580;2022-09-09T11:08:26;98627.31;;;21.11;59.66
21760;BME280;11041;50.854;20.580;2022-09-09T11:13:59;98624.06;;;21.02;58.91
21760;BME280;11041;50.854;20.580;2022-09-09T11:17:04;98629.75;;;21.16;59.61
21760;BME280;11041;50.854;20.580;2022-09-09T11:19:43;98643.34;;;21.18;60.48
21760;BME280;11041;50.854;20.580;2022-09-09T11:22:36;98640.53;;;21.18;59.13
21760;BME280;11041;50.854;20.580;2022-09-09T11:25:34;98634.53;;;21.16;59.74
21760;BME280;11041;50.854;20.580;2022-09-09T11:31:44;98641.44;;;21.33;60.71
21760;BME280;11041;50.854;20.580;2022-09-09T11:34:25;98640.38;;;21.52;61.02
21760;BME280;11041;50.854;20.580;2022-09-09T11:42:34;98636.53;;;21.88;59.01
21760;BME280;11041;50.854;20.580;2022-09-09T11:45:23;98627.41;;;21.99;58.28
21760;BME280;11041;50.854;20.580;2022-09-09T11:47:57;98639.88;;;22.23;57.02
21760;BME280;11041;50.854;20.580;2022-09-09T11:53:02;98637.91;;;22.41;52.96
21760;BME280;11041;50.854;20.580;2022-09-09T11:55:33;98637.94;;;22.55;54.12
21760;BME280;11041;50.854;20.580;2022-09-09T11:58:05;98629.94;;;22.50;53.98
21760;BME280;11041;50.854;20.580;2022-09-09T12:00:44;98609.50;;;22.46;54.08
21760;BME280;11041;50.854;20.580;2022-09-09T12:06:25;98624.72;;;22.63;53.40
21760;BME280;11041;50.854;20.580;2022-09-09T12:09:11;98617.53;;;22.62;53.78
21760;BME280;11041;50.854;20.580;2022-09-09T12:11:42;98615.13;;;22.68;54.95
21760;BME280;11041;50.854;20.580;2022-09-09T12:14:35;98600.75;;;22.69;52.40
21760;BME280;11041;50.854;20.580;2022-09-09T12:17:25;98614.75;;;22.80;52.55
21760;BME280;11041;50.854;20.580;2022-09-09T12:23:13;98618.75;;;22.75;52.20
21760;BME280;11041;50.854;20.580;2022-09-09T12:32:24;98607.53;;;22.86;52.59
21760;BME280;11041;50.854;20.580;2022-09-09T12:35:27;98607.91;;;22.85;52.33
21760;BME280;11041;50.854;20.580;2022-09-09T12:38:03;98603.56;;;22.66;52.61
21760;BME280;11041;50.854;20.580;2022-09-09T12:40:34;98607.94;;;22.63;53.19
21760;BME280;11041;50.854;20.580;2022-09-09T12:43:19;98606.34;;;22.55;52.18
21760;BME280;11041;50.854;20.580;2022-09-09T12:46:03;98599.91;;;22.51;53.37
21760;BME280;11041;50.854;20.580;2022-09-09T12:48:40;98609.94;;;22.59;51.37
21760;BME280;11041;50.854;20.580;2022-09-09T12:51:29;98608.31;;;22.58;51.62
21760;BME280;11041;50.854;20.580;2022-09-09T12:53:58;98622.34;;;22.72;51.77
21760;BME280;11041;50.854;20.580;2022-09-09T12:56:30;98623.16;;;22.69;52.67
21760;BME280;11041;50.854;20.580;2022-09-09T12:58:58;98624.72;;;22.70;52.58
21760;BME280;11041;50.854;20.580;2022-09-09T13:01:29;98591.94;;;22.53;52.40
21760;BME280;11041;50.854;20.580;2022-09-09T13:03:56;98593.94;;;22.42;52.20
21760;BME280;11041;50.854;20.580;2022-09-09T13:06:31;98607.53;;;22.32;51.19
21760;BME280;11041;50.854;20.580;2022-09-09T13:09:01;98599.13;;;22.25;51.88
21760;BME280;11041;50.854;20.580;2022-09-09T13:11:36;98602.69;;;22.22;52.98
21760;BME280;11041;50.854;20.580;2022-09-09T13:14:05;98615.53;;;22.38;53.21
21760;BME280;11041;50.854;20.580;2022-09-09T13:16:35;98591.91;;;22.46;53.06
21760;BME280;11041;50.854;20.580;2022-09-09T13:19:14;98603.53;;;22.76;50.28
21760;BME280;11041;50.854;20.580;2022-09-09T13:21:42;98602.31;;;22.85;49.81
21760;BME280;11041;50.854;20.580;2022-09-09T13:24:33;98598.31;;;22.96;48.60
21760;BME280;11041;50.854;20.580;2022-09-09T13:35:56;98606.28;;;23.41;50.24
21760;BME280;11041;50.854;20.580;2022-09-09T13:38:24;98585.44;;;23.38;49.54
21760;BME280;11041;50.854;20.580;2022-09-09T13:41:10;98595.81;;;23.59;48.62
21760;BME280;11041;50.854;20.580;2022-09-09T13:43:46;98584.59;;;23.52;47.79
21760;BME280;11041;50.854;20.580;2022-09-09T13:51:42;98576.63;;;23.40;49.22
21760;BME280;11041;50.854;20.580;2022-09-09T13:54:13;98583.00;;;23.44;49.02
21760;BME280;11041;50.854;20.580;2022-09-09T13:56:42;98593.44;;;23.40;48.06
21760;BME280;11041;50.854;20.580;2022-09-09T13:59:15;98587.06;;;23.32;49.25
21760;BME280;11041;50.854;20.580;2022-09-09T14:01:42;98579.06;;;23.27;50.35
21760;BME280;11041;50.854;20.580;2022-09-09T14:04:10;98602.25;;;23.46;50.36
21760;BME280;11041;50.854;20.580;2022-09-09T14:06:37;98593.78;;;23.60;50.03
21760;BME280;11041;50.854;20.580;2022-09-09T14:09:09;98580.19;;;23.55;48.98
21760;BME280;11041;50.854;20.580;2022-09-09T14:11:39;98578.97;;;23.59;48.03
21760;BME280;11041;50.854;20.580;2022-09-09T14:14:10;98583.31;;;23.71;47.16
21760;BME280;11041;50.854;20.580;2022-09-09T14:16:36;98572.94;;;23.65;48.24
21760;BME280;11041;50.854;20.580;2022-09-09T14:19:03;98579.69;;;23.81;48.49
21760;BME280;11041;50.854;20.580;2022-09-09T14:21:30;98574.84;;;23.89;47.79
21760;BME280;11041;50.854;20.580;2022-09-09T14:23:57;98587.97;;;24.10;47.28
21760;BME280;11041;50.854;20.580;2022-09-09T14:26:24;98583.44;;;24.23;48.02
21760;BME280;11041;50.854;20.580;2022-09-09T14:28:52;98574.63;;;24.25;47.48
21760;BME280;11041;50.854;20.580;2022-09-09T14:31:18;98595.06;;;24.26;48.31
21760;BME280;11041;50.854;20.580;2022-09-09T14:33:45;98592.28;;;24.22;48.35
21760;BME280;11041;50.854;20.580;2022-09-09T14:36:12;98593.13;;;24.15;47.98
21760;BME280;11041;50.854;20.580;2022-09-09T14:38:39;98593.19;;;24.05;48.33
21760;BME280;11041;50.854;20.580;2022-09-09T14:41:07;98595.28;;;23.93;49.03
21760;BME280;11041;50.854;20.580;2022-09-09T14:43:34;98586.56;;;23.63;48.23
21760;BME280;11041;50.854;20.580;2022-09-09T14:46:11;98575.84;;;23.36;49.12
21760;BME280;11041;50.854;20.580;2022-09-09T14:48:38;98571.50;;;23.17;50.51
21760;BME280;11041;50.854;20.580;2022-09-09T14:51:23;98584.34;;;23.00;55.13
21760;BME280;11041;50.854;20.580;2022-09-09T14:53:56;98577.91;;;22.82;55.79
21760;BME280;11041;50.854;20.580;2022-09-09T14:56:26;98569.94;;;22.59;58.18
21760;BME280;11041;50.854;20.580;2022-09-09T14:58:55;98581.53;;;22.50;58.74
21760;BME280;11041;50.854;20.580;2022-09-09T15:01:24;98569.09;;;22.19;61.33
21760;BME280;11041;50.854;20.580;2022-09-09T15:03:54;98571.06;;;22.04;62.06
21760;BME280;11041;50.854;20.580;2022-09-09T15:06:22;98579.41;;;21.93;62.41
21760;BME280;11041;50.854;20.580;2022-09-09T15:08:52;98561.78;;;21.71;64.20
21760;BME280;11041;50.854;20.580;2022-09-09T15:11:21;98564.53;;;21.64;63.72
21760;BME280;11041;50.854;20.580;2022-09-09T15:13:52;98566.50;;;21.56;65.63
21760;BME280;11041;50.854;20.580;2022-09-09T15:16:25;98561.63;;;21.39;66.26
21760;BME280;11041;50.854;20.580;2022-09-09T15:18:55;98557.97;;;21.27;67.48
21760;BME280;11041;50.854;20.580;2022-09-09T15:21:28;98564.31;;;21.17;69.20
21760;BME280;11041;50.854;20.580;2022-09-09T15:23:56;98562.28;;;21.11;70.01
21760;BME280;11041;50.854;20.580;2022-09-09T15:26:24;98555.81;;;20.99;68.38
21760;BME280;11041;50.854;20.580;2022-09-09T15:28:50;98558.59;;;20.99;68.48
21760;BME280;11041;50.854;20.580;2022-09-09T15:31:23;98554.19;;;20.95;69.31
21760;BME280;11041;50.854;20.580;2022-09-09T15:33:57;98569.03;;;21.02;68.13
21760;BME280;11041;50.854;20.580;2022-09-09T15:36:36;98573.78;;;21.02;68.27
21760;BME280;11041;50.854;20.580;2022-09-09T15:39:07;98552.16;;;20.88;68.88
21760;BME280;11041;50.854;20.580;2022-09-09T15:41:34;98563.75;;;20.94;68.94
21760;BME280;11041;50.854;20.580;2022-09-09T15:44:01;98564.13;;;20.89;69.51
21760;BME280;11041;50.854;20.580;2022-09-09T15:46:49;98565.31;;;20.88;69.18
21760;BME280;11041;50.854;20.580;2022-09-09T15:49:20;98568.88;;;20.84;69.59
21760;BME280;11041;50.854;20.580;2022-09-09T15:51:58;98568.47;;;20.79;70.52
21760;BME280;11041;50.854;20.580;2022-09-09T15:54:26;98565.63;;;20.72;71.18
21760;BME280;11041;50.854;20.580;2022-09-09T15:56:56;98563.13;;;20.59;72.84
21760;BME280;11041;50.854;20.580;2022-09-09T15:59:27;98564.25;;;20.55;73.51
21760;BME280;11041;50.854;20.580;2022-09-09T16:01:55;98575.38;;;20.48;73.88
21760;BME280;11041;50.854;20.580;2022-09-09T16:04:23;98572.88;;;20.39;75.08
21760;BME280;11041;50.854;20.580;2022-09-09T16:07:07;98550.38;;;20.17;75.94
21760;BME280;11041;50.854;20.580;2022-09-09T16:09:34;98584.34;;;20.27;75.53
21760;BME280;11041;50.854;20.580;2022-09-09T16:12:04;98581.91;;;20.21;75.03
21760;BME280;11041;50.854;20.580;2022-09-09T16:14:36;98581.06;;;20.17;74.21
21760;BME280;11041;50.854;20.580;2022-09-09T16:17:04;98579.81;;;20.11;74.32
21760;BME280;11041;50.854;20.580;2022-09-09T16:19:33;98589.34;;;20.10;74.30
21760;BME280;11041;50.854;20.580;2022-09-09T16:22:01;98564.09;;;19.92;74.14
21760;BME280;11041;50.854;20.580;2022-09-09T16:24:27;98570.44;;;19.89;73.50
21760;BME280;11041;50.854;20.580;2022-09-09T16:26:54;98600.00;;;19.97;73.65
21760;BME280;11041;50.854;20.580;2022-09-09T16:29:23;98577.44;;;19.76;73.64
21760;BME280;11041;50.854;20.580;2022-09-09T16:31:50;98610.22;;;19.86;74.08
21760;BME280;11041;50.854;20.580;2022-09-09T16:34:18;98578.16;;;19.69;74.29
21760;BME280;11041;50.854;20.580;2022-09-09T16:36:46;98596.88;;;19.69;74.26
21760;BME280;11041;50.854;20.580;2022-09-09T16:39:16;98593.09;;;19.54;74.18
21760;BME280;11041;50.854;20.580;2022-09-09T16:41:45;98597.44;;;19.51;74.44
21760;BME280;11041;50.854;20.580;2022-09-09T16:44:14;98594.88;;;19.39;74.35
21760;BME280;11041;50.854;20.580;2022-09-09T16:46:43;98609.66;;;19.43;74.98
21760;BME280;11041;50.854;20.580;2022-09-09T16:49:14;98590.28;;;19.24;75.02
21760;BME280;11041;50.854;20.580;2022-09-09T16:51:48;98601.44;;;19.24;75.74
21760;BME280;11041;50.854;20.580;2022-09-09T16:54:17;98600.53;;;19.16;76.06
21760;BME280;11041;50.854;20.580;2022-09-09T16:56:47;98604.41;;;19.08;76.39